sensor_id;sensor_type;location;lat;lon;timestamp;pressure;altitude;pressure_sealevel;temperature;humidity
69257;BME280;56376;53.356;-1.748;2023-05-08T00:01:45;99775.41;;;11.88;100.00
69257;BME280;56376;53.356;-1.748;2023-05-08T00:04:10;99767.63;;;11.87;100.00
69257;BME280;56376;53.356;-1.748;2023-05-08T00:06:36;99764.19;;;11.85;100.00
69257;BME280;56376;53.356;-1.748;2023-05-08T00:09:01;99757.31;;;11.82;100.00
69257;BME280;56376;53.356;-1.748;2023-05-08T00:11:27;99761.88;;;11.77;100.00
69257;BME280;56376;53.356;-1.748;2023-05-08T00:13:52;99761.09;;;11.74;100.00
69257;BME280;56376;53.356;-1.748;2023-05-08T00:16:18;99750.75;;;11.70;100.00
69257;BME280;56376;53.356;-1.748;2023-05-08T00:18:43;99746.63;;;11.65;100.00
69257;BME280;56376;53.356;-1.748;2023-05-08T00:21:08;99751.09;;;11.61;100.00
69257;BME280;56376;53.356;-1.748;2023-05-08T00:23:34;99748.56;;;11.60;100.00
69257;BME280;56376;53.356;-1.748;2023-05-08T00:25:59;99751.22;;;11.58;100.00
69257;BME280;56376;53.356;-1.748;2023-05-08T00:28:25;99745.28;;;11.53;100.00
69257;BME280;56376;53.356;-1.748;2023-05-08T00:30:50;99746.34;;;11.49;100.00
69257;BME280;56376;53.356;-1.748;2023-05-08T00:33:16;99750.75;;;11.47;100.00
69257;BME280;56376;53.356;-1.748;2023-05-08T00:35:41;99751.66;;;11.46;100.00
69257;BME280;56376;53.356;-1.748;2023-05-08T00:38:08;99756.19;;;11.41;100.00
69257;BME280;56376;53.356;-1.748;2023-05-08T00:40:33;99754.56;;;11.38;100.00
69257;BME280;56376;53.356;-1.748;2023-05-08T00:42:59;99751.13;;;11.36;100.00
69257;BME280;56376;53.356;-1.748;2023-05-08T00:45:33;99752.16;;;11.32;100.00
69257;BME280;56376;53.356;-1.748;2023-05-08T00:47:59;99746.25;;;11.27;100.00
69257;BME280;56376;53.356;-1.748;2023-05-08T00:50:25;99754.94;;;11.27;100.00
69257;BME280;56376;53.356;-1.748;2023-05-08T00:52:51;99744.59;;;11.24;100.00
69257;BME280;56376;53.356;-1.748;2023-05-08T00:55:18;99746.53;;;11.19;100.00
69257;BME280;56376;53.356;-1.748;2023-05-08T00:57:45;99755.31;;;11.17;100.00
69257;BME280;56376;53.356;-1.748;2023-05-08T01:00:12;99745.84;;;11.14;100.00
69257;BME280;56376;53.356;-1.748;2023-05-08T01:02:40;99752.88;;;11.12;100.00
69257;BME280;56376;53.356;-1.748;2023-05-08T01:05:06;99742.69;;;11.04;100.00
69257;BME280;56376;53.356;-1.748;2023-05-08T01:07:31;99740.00;;;11.06;100.00
69257;BME280;56376;53.356;-1.748;2023-05-08T01:09:57;99742.72;;;11.03;100.00
69257;BME280;56376;53.356;-1.748;2023-05-08T01:15:26;99739.38;;;10.99;100.00
69257;BME280;56376;53.356;-1.748;2023-05-08T01:18:26;99742.94;;;10.97;100.00
69257;BME280;56376;53.356;-1.748;2023-05-08T01:20:59;99736.09;;;10.93;100.00
69257;BME280;56376;53.356;-1.748;2023-05-08T01:34:32;99723.38;;;10.83;100.00
69257;BME280;56376;53.356;-1.748;2023-05-08T01:37:10;99727.78;;;10.81;100.00
69257;BME280;56376;53.356;-1.748;2023-05-08T01:45:09;99725.34;;;10.77;100.00
69257;BME280;56376;53.356;-1.748;2023-05-08T01:47:36;99713.13;;;10.77;100.00
69257;BME280;56376;53.356;-1.748;2023-05-08T01:50:22;99708.81;;;10.76;100.00
69257;BME280;56376;53.356;-1.748;2023-05-08T01:52:57;99711.44;;;10.76;100.00
69257;BME280;56376;53.356;-1.748;2023-05-08T01:55:34;99715.72;;;10.77;100.00
69257;BME280;56376;53.356;-1.748;2023-05-08T01:58:04;99711.44;;;10.76;100.00
69257;BME280;56376;53.356;-1.748;2023-05-08T02:00:31;99701.88;;;10.75;100.00
69257;BME280;56376;53.356;-1.748;2023-05-08T02:02:57;99709.53;;;10.80;100.00
69257;BME280;56376;53.356;-1.748;2023-05-08T02:05:23;99705.16;;;10.80;100.00
69257;BME280;56376;53.356;-1.748;2023-05-08T02:07:50;99697.44;;;10.77;100.00
69257;BME280;56376;53.356;-1.748;2023-05-08T02:10:18;99713.00;;;10.80;100.00
69257;BME280;56376;53.356;-1.748;2023-05-08T02:12:45;99707.84;;;10.79;100.00
69257;BME280;56376;53.356;-1.748;2023-05-08T02:15:13;99699.25;;;10.75;100.00
69257;BME280;56376;53.356;-1.748;2023-05-08T02:17:40;99700.88;;;10.79;100.00
69257;BME280;56376;53.356;-1.748;2023-05-08T02:20:08;99696.59;;;10.77;100.00
69257;BME280;56376;53.356;-1.748;2023-05-08T02:22:43;99700.16;;;10.74;100.00
69257;BME280;56376;53.356;-1.748;2023-05-08T02:25:11;99706.34;;;10.72;100.00
69257;BME280;56376;53.356;-1.748;2023-05-08T02:27:40;99709.00;;;10.70;100.00
69257;BME280;56376;53.356;-1.748;2023-05-08T02:30:10;99702.19;;;10.66;100.00
69257;BME280;56376;53.356;-1.748;2023-05-08T02:32:37;99696.84;;;10.69;100.00
69257;BME280;56376;53.356;-1.748;2023-05-08T02:35:05;99690.78;;;10.69;100.00
69257;BME280;56376;53.356;-1.748;2023-05-08T02:37:32;99688.19;;;10.69;100.00
69257;BME280;56376;53.356;-1.748;2023-05-08T02:40:00;99690.03;;;10.65;100.00
69257;BME280;56376;53.356;-1.748;2023-05-08T02:42:26;99692.69;;;10.64;100.00
69257;BME280;56376;53.356;-1.748;2023-05-08T02:44:51;99682.34;;;10.60;100.00
69257;BME280;56376;53.356;-1.748;2023-05-08T02:47:20;99692.69;;;10.64;100.00
69257;BME280;56376;53.356;-1.748;2023-05-08T02:49:54;99684.00;;;10.63;100.00
69257;BME280;56376;53.356;-1.748;2023-05-08T02:52:28;99682.34;;;10.60;100.00
69257;BME280;56376;53.356;-1.748;2023-05-08T02:54:58;99678.00;;;10.61;100.00
69257;BME280;56376;53.356;-1.748;2023-05-08T03:00:17;99679.69;;;10.62;100.00
69257;BME280;56376;53.356;-1.748;2023-05-08T03:03:00;99674.47;;;10.62;100.00
69257;BME280;56376;53.356;-1.748;2023-05-08T03:05:32;99678.88;;;10.60;100.00
69257;BME280;56376;53.356;-1.748;2023-05-08T03:08:02;99670.16;;;10.61;100.00
69257;BME280;56376;53.356;-1.748;2023-05-08T03:10:32;99665.81;;;10.60;100.00
69257;BME280;56376;53.356;-1.748;2023-05-08T03:13:02;99658.06;;;10.58;100.00
69257;BME280;56376;53.356;-1.748;2023-05-08T03:15:41;99659.59;;;10.64;100.00
69257;BME280;56376;53.356;-1.748;2023-05-08T03:18:13;99666.50;;;10.65;100.00
69257;BME280;56376;53.356;-1.748;2023-05-08T03:20:43;99665.63;;;10.66;100.00
69257;BME280;56376;53.356;-1.748;2023-05-08T03:23:11;99664.75;;;10.66;100.00
69257;BME280;56376;53.356;-1.748;2023-05-08T03:25:40;99648.34;;;10.62;100.00
69257;BME280;56376;53.356;-1.748;2023-05-08T03:28:06;99650.09;;;10.61;100.00
69257;BME280;56376;53.356;-1.748;2023-05-08T03:30:35;99651.88;;;10.61;100.00
69257;BME280;56376;53.356;-1.748;2023-05-08T03:33:03;99646.53;;;10.64;100.00
69257;BME280;56376;53.356;-1.748;2023-05-08T03:35:30;99642.19;;;10.63;100.00
69257;BME280;56376;53.356;-1.748;2023-05-08T03:37:56;99646.56;;;10.63;100.00
69257;BME280;56376;53.356;-1.748;2023-05-08T03:40:22;99639.50;;;10.66;100.00
69257;BME280;56376;53.356;-1.748;2023-05-08T03:42:48;99647.25;;;10.68;100.00
69257;BME280;56376;53.356;-1.748;2023-05-08T03:45:15;99644.66;;;10.68;100.00
69257;BME280;56376;53.356;-1.748;2023-05-08T03:47:42;99647.34;;;10.66;100.00
69257;BME280;56376;53.356;-1.748;2023-05-08T03:50:08;99638.69;;;10.64;100.00
69257;BME280;56376;53.356;-1.748;2023-05-08T03:52:33;99638.72;;;10.63;100.00
69257;BME280;56376;53.356;-1.748;2023-05-08T03:54:59;99640.63;;;10.59;100.00
69257;BME280;56376;53.356;-1.748;2023-05-08T03:57:27;99641.47;;;10.59;100.00
69257;BME280;56376;53.356;-1.748;2023-05-08T04:00:15;99636.19;;;10.61;100.00
69257;BME280;56376;53.356;-1.748;2023-05-08T04:02:51;99634.47;;;10.60;100.00
69257;BME280;56376;53.356;-1.748;2023-05-08T04:05:25;99645.03;;;10.57;100.00
69257;BME280;56376;53.356;-1.748;2023-05-08T04:08:04;99642.47;;;10.55;100.00
69257;BME280;56376;53.356;-1.748;2023-05-08T04:10:41;99638.88;;;10.58;100.00
69257;BME280;56376;53.356;-1.748;2023-05-08T04:13:18;99636.38;;;10.55;100.00
69257;BME280;56376;53.356;-1.748;2023-05-08T04:15:51;99640.66;;;10.57;100.00
69257;BME280;56376;53.356;-1.748;2023-05-08T04:18:24;99632.78;;;10.59;100.00
69257;BME280;56376;53.356;-1.748;2023-05-08T04:20:53;99631.81;;;10.61;100.00
69257;BME280;56376;53.356;-1.748;2023-05-08T04:23:20;99625.63;;;10.64;100.00
69257;BME280;56376;53.356;-1.748;2023-05-08T04:25:47;99633.34;;;10.67;100.00
69257;BME280;56376;53.356;-1.748;2023-05-08T04:28:14;99634.16;;;10.69;100.00
69257;BME280;56376;53.356;-1.748;2023-05-08T04:30:40;99613.25;;;10.69;100.00
69257;BME280;56376;53.356;-1.748;2023-05-08T04:33:06;99633.94;;;10.75;100.00
69257;BME280;56376;53.356;-1.748;2023-05-08T04:35:32;99614.00;;;10.73;100.00
69257;BME280;56376;53.356;-1.748;2023-05-08T04:37:58;99625.03;;;10.81;100.00
69257;BME280;56376;53.356;-1.748;2023-05-08T04:40:24;99617.97;;;10.83;100.00
69257;BME280;56376;53.356;-1.748;2023-05-08T04:42:49;99610.94;;;10.85;100.00
69257;BME280;56376;53.356;-1.748;2023-05-08T04:45:15;99610.81;;;10.88;100.00
69257;BME280;56376;53.356;-1.748;2023-05-08T04:47:41;99612.47;;;10.91;100.00
69257;BME280;56376;53.356;-1.748;2023-05-08T04:50:06;99613.34;;;10.91;100.00
69257;BME280;56376;53.356;-1.748;2023-05-08T04:52:32;99617.63;;;10.94;100.00
69257;BME280;56376;53.356;-1.748;2023-05-08T04:54:57;99612.28;;;10.97;100.00
69257;BME280;56376;53.356;-1.748;2023-05-08T04:57:23;99610.47;;;10.99;100.00
69257;BME280;56376;53.356;-1.748;2023-05-08T04:59:48;99606.81;;;11.03;100.00
69257;BME280;56376;53.356;-1.748;2023-05-08T05:02:14;99610.22;;;11.05;100.00
69257;BME280;56376;53.356;-1.748;2023-05-08T05:04:39;99608.44;;;11.05;100.00
69257;BME280;56376;53.356;-1.748;2023-05-08T05:07:04;99607.47;;;11.08;100.00
69257;BME280;56376;53.356;-1.748;2023-05-08T05:09:30;99606.63;;;11.08;100.00
69257;BME280;56376;53.356;-1.748;2023-05-08T05:11:55;99612.59;;;11.11;100.00
69257;BME280;56376;53.356;-1.748;2023-05-08T05:14:21;99609.13;;;11.11;100.00
69257;BME280;56376;53.356;-1.748;2023-05-08T05:16:46;99611.66;;;11.14;100.00
69257;BME280;56376;53.356;-1.748;2023-05-08T05:19:12;99610.78;;;11.13;100.00
69257;BME280;56376;53.356;-1.748;2023-05-08T05:21:37;99611.56;;;11.15;100.00
69257;BME280;56376;53.356;-1.748;2023-05-08T05:24:04;99605.38;;;11.18;100.00
69257;BME280;56376;53.356;-1.748;2023-05-08T05:26:30;99613.19;;;11.19;100.00
69257;BME280;56376;53.356;-1.748;2023-05-08T05:28:55;99608.81;;;11.20;100.00
69257;BME280;56376;53.356;-1.748;2023-05-08T05:31:21;99615.72;;;11.21;100.00
69257;BME280;56376;53.356;-1.748;2023-05-08T05:33:46;99607.88;;;11.21;100.00
69257;BME280;56376;53.356;-1.748;2023-05-08T05:36:11;99597.41;;;11.21;100.00
69257;BME280;56376;53.356;-1.748;2023-05-08T05:38:37;99597.31;;;11.24;100.00
69257;BME280;56376;53.356;-1.748;2023-05-08T05:41:03;99595.56;;;11.24;100.00
69257;BME280;56376;53.356;-1.748;2023-05-08T05:43:28;99598.97;;;11.26;100.00
69257;BME280;56376;53.356;-1.748;2023-05-08T05:45:54;99602.34;;;11.29;100.00
69257;BME280;56376;53.356;-1.748;2023-05-08T05:48:22;99607.66;;;11.27;100.00
69257;BME280;56376;53.356;-1.748;2023-05-08T05:50:48;99611.00;;;11.31;100.00
69257;BME280;56376;53.356;-1.748;2023-05-08T05:53:13;99609.22;;;11.31;100.00
69257;BME280;56376;53.356;-1.748;2023-05-08T05:55:39;99610.00;;;11.35;100.00
69257;BME280;56376;53.356;-1.748;2023-05-08T05:58:05;99605.66;;;11.34;100.00
69257;BME280;56376;53.356;-1.748;2023-05-08T06:00:30;99603.78;;;11.37;100.00
69257;BME280;56376;53.356;-1.748;2023-05-08T06:02:56;99608.09;;;11.38;100.00
69257;BME280;56376;53.356;-1.748;2023-05-08T06:05:22;99615.94;;;11.38;100.00
69257;BME280;56376;53.356;-1.748;2023-05-08T06:07:47;99608.09;;;11.38;100.00
69257;BME280;56376;53.356;-1.748;2023-05-08T06:10:13;99609.81;;;11.39;100.00
69257;BME280;56376;53.356;-1.748;2023-05-08T06:12:38;99603.66;;;11.40;100.00
69257;BME280;56376;53.356;-1.748;2023-05-08T06:15:04;99605.31;;;11.43;100.00
69257;BME280;56376;53.356;-1.748;2023-05-08T06:17:30;99604.34;;;11.45;100.00
69257;BME280;56376;53.356;-1.748;2023-05-08T06:19:55;99598.13;;;11.48;100.00
69257;BME280;56376;53.356;-1.748;2023-05-08T06:22:21;99597.34;;;11.46;100.00
69257;BME280;56376;53.356;-1.748;2023-05-08T06:24:49;99603.31;;;11.50;100.00
69257;BME280;56376;53.356;-1.748;2023-05-08T06:27:17;99607.63;;;11.51;100.00
69257;BME280;56376;53.356;-1.748;2023-05-08T06:29:43;99597.25;;;11.49;100.00
69257;BME280;56376;53.356;-1.748;2023-05-08T06:32:08;99603.38;;;11.48;100.00
69257;BME280;56376;53.356;-1.748;2023-05-08T06:34:33;99595.47;;;11.50;100.00
69257;BME280;56376;53.356;-1.748;2023-05-08T06:36:59;99598.88;;;11.52;100.00
69257;BME280;56376;53.356;-1.748;2023-05-08T06:39:24;99596.25;;;11.52;100.00
69257;BME280;56376;53.356;-1.748;2023-05-08T06:41:50;99594.50;;;11.52;100.00
69257;BME280;56376;53.356;-1.748;2023-05-08T06:44:15;99603.31;;;11.50;100.00
69257;BME280;56376;53.356;-1.748;2023-05-08T06:46:41;99603.19;;;11.53;100.00
69257;BME280;56376;53.356;-1.748;2023-05-08T06:49:07;99601.41;;;11.53;100.00
69257;BME280;56376;53.356;-1.748;2023-05-08T06:51:32;99599.66;;;11.54;100.00
69257;BME280;56376;53.356;-1.748;2023-05-08T06:54:00;99593.66;;;11.52;100.00
69257;BME280;56376;53.356;-1.748;2023-05-08T06:56:26;99585.06;;;11.48;100.00
69257;BME280;56376;53.356;-1.748;2023-05-08T06:58:51;99592.78;;;11.51;100.00
69257;BME280;56376;53.356;-1.748;2023-05-08T07:01:17;99587.66;;;11.48;100.00
69257;BME280;56376;53.356;-1.748;2023-05-08T07:03:42;99595.50;;;11.48;100.00
69257;BME280;56376;53.356;-1.748;2023-05-08T07:06:08;99589.31;;;11.51;100.00
69257;BME280;56376;53.356;-1.748;2023-05-08T07:08:34;99602.47;;;11.49;100.00
69257;BME280;56376;53.356;-1.748;2023-05-08T07:10:59;99593.69;;;11.50;100.00
69257;BME280;56376;53.356;-1.748;2023-05-08T07:13:25;99588.59;;;11.47;100.00
69257;BME280;56376;53.356;-1.748;2023-05-08T07:15:51;99581.63;;;11.46;100.00
69257;BME280;56376;53.356;-1.748;2023-05-08T07:18:16;99580.75;;;11.47;100.00
69257;BME280;56376;53.356;-1.748;2023-05-08T07:20:41;99588.63;;;11.45;100.00
69257;BME280;56376;53.356;-1.748;2023-05-08T07:23:07;99583.38;;;11.47;100.00
69257;BME280;56376;53.356;-1.748;2023-05-08T07:25:32;99580.75;;;11.47;100.00
69257;BME280;56376;53.356;-1.748;2023-05-08T07:27:57;99580.75;;;11.47;100.00
69257;BME280;56376;53.356;-1.748;2023-05-08T07:30:23;99578.94;;;11.49;100.00
69257;BME280;56376;53.356;-1.748;2023-05-08T07:32:48;99579.03;;;11.46;100.00
69257;BME280;56376;53.356;-1.748;2023-05-08T07:35:14;99575.44;;;11.48;100.00
69257;BME280;56376;53.356;-1.748;2023-05-08T07:37:39;99565.94;;;11.46;100.00
69257;BME280;56376;53.356;-1.748;2023-05-08T07:40:05;99571.84;;;11.51;100.00
69257;BME280;56376;53.356;-1.748;2023-05-08T07:42:37;99569.97;;;11.55;100.00
69257;BME280;56376;53.356;-1.748;2023-05-08T07:45:03;99571.75;;;11.54;100.00
69257;BME280;56376;53.356;-1.748;2023-05-08T07:47:29;99566.53;;;11.54;100.00
69257;BME280;56376;53.356;-1.748;2023-05-08T07:49:54;99563.03;;;11.54;100.00
69257;BME280;56376;53.356;-1.748;2023-05-08T07:52:20;99576.09;;;11.54;100.00
69257;BME280;56376;53.356;-1.748;2023-05-08T07:54:46;99568.34;;;11.52;100.00
69257;BME280;56376;53.356;-1.748;2023-05-08T07:57:11;99574.38;;;11.54;100.00
69257;BME280;56376;53.356;-1.748;2023-05-08T07:59:37;99562.19;;;11.53;100.00
69257;BME280;56376;53.356;-1.748;2023-05-08T08:02:02;99572.66;;;11.53;100.00
69257;BME280;56376;53.356;-1.748;2023-05-08T08:04:28;99569.06;;;11.56;100.00
69257;BME280;56376;53.356;-1.748;2023-05-08T08:06:54;99570.78;;;11.57;100.00
69257;BME280;56376;53.356;-1.748;2023-05-08T08:09:36;99568.22;;;11.55;100.00
69257;BME280;56376;53.356;-1.748;2023-05-08T08:12:02;99569.00;;;11.57;100.00
69257;BME280;56376;53.356;-1.748;2023-05-08T08:14:27;99567.38;;;11.55;100.00
69257;BME280;56376;53.356;-1.748;2023-05-08T08:16:53;99569.06;;;11.56;100.00
69257;BME280;56376;53.356;-1.748;2023-05-08T08:19:19;99575.94;;;11.58;100.00
69257;BME280;56376;53.356;-1.748;2023-05-08T08:21:44;99575.94;;;11.58;100.00
69257;BME280;56376;53.356;-1.748;2023-05-08T08:24:13;99570.78;;;11.57;100.00
69257;BME280;56376;53.356;-1.748;2023-05-08T08:26:41;99575.94;;;11.58;100.00
69257;BME280;56376;53.356;-1.748;2023-05-08T08:29:07;99570.03;;;11.53;100.00
69257;BME280;56376;53.356;-1.748;2023-05-08T08:31:33;99575.13;;;11.56;100.00
69257;BME280;56376;53.356;-1.748;2023-05-08T08:33:58;99571.66;;;11.56;100.00
69257;BME280;56376;53.356;-1.748;2023-05-08T08:36:24;99569.00;;;11.57;100.00
69257;BME280;56376;53.356;-1.748;2023-05-08T08:38:49;99570.69;;;11.58;100.00
69257;BME280;56376;53.356;-1.748;2023-05-08T08:41:15;99574.09;;;11.60;100.00
69257;BME280;56376;53.356;-1.748;2023-05-08T08:43:40;99569.81;;;11.59;100.00
69257;BME280;56376;53.356;-1.748;2023-05-08T08:46:12;99569.72;;;11.61;100.00
69257;BME280;56376;53.356;-1.748;2023-05-08T08:48:45;99575.75;;;11.63;100.00
69257;BME280;56376;53.356;-1.748;2023-05-08T08:51:42;99569.81;;;11.59;100.00
69257;BME280;56376;53.356;-1.748;2023-05-08T08:56:38;99572.28;;;11.62;100.00
69257;BME280;56376;53.356;-1.748;2023-05-08T08:59:05;99565.34;;;11.61;100.00
69257;BME280;56376;53.356;-1.748;2023-05-08T09:01:35;99566.97;;;11.64;100.00
69257;BME280;56376;53.356;-1.748;2023-05-08T09:04:03;99561.75;;;11.64;100.00
69257;BME280;56376;53.356;-1.748;2023-05-08T09:06:29;99553.06;;;11.63;100.00
69257;BME280;56376;53.356;-1.748;2023-05-08T09:08:55;99555.63;;;11.65;100.00
69257;BME280;56376;53.356;-1.748;2023-05-08T09:11:24;99552.16;;;11.64;100.00
69257;BME280;56376;53.356;-1.748;2023-05-08T09:13:50;99546.94;;;11.64;100.00
69257;BME280;56376;53.356;-1.748;2023-05-08T09:16:16;99540.75;;;11.65;100.00
69257;BME280;56376;53.356;-1.748;2023-05-08T09:18:44;99547.63;;;11.68;100.00
69257;BME280;56376;53.356;-1.748;2023-05-08T09:21:10;99539.78;;;11.68;100.00
69257;BME280;56376;53.356;-1.748;2023-05-08T09:23:36;99534.59;;;11.66;100.00
69257;BME280;56376;53.356;-1.748;2023-05-08T09:26:01;99528.47;;;11.67;100.00
69257;BME280;56376;53.356;-1.748;2023-05-08T09:28:27;99532.66;;;11.72;100.00
69257;BME280;56376;53.356;-1.748;2023-05-08T09:30:54;99528.22;;;11.74;100.00
69257;BME280;56376;53.356;-1.748;2023-05-08T09:33:21;99524.69;;;11.75;100.00
69257;BME280;56376;53.356;-1.748;2023-05-08T09:35:47;99531.63;;;11.76;100.00
69257;BME280;56376;53.356;-1.748;2023-05-08T09:41:12;99528.78;;;11.82;100.00
69257;BME280;56376;53.356;-1.748;2023-05-08T09:43:42;99525.28;;;11.81;100.00
69257;BME280;56376;53.356;-1.748;2023-05-08T09:46:22;99517.38;;;11.83;100.00
69257;BME280;56376;53.356;-1.748;2023-05-08T09:48:53;99517.31;;;11.84;100.00
69257;BME280;56376;53.356;-1.748;2023-05-08T09:51:19;99513.84;;;11.84;100.00
69257;BME280;56376;53.356;-1.748;2023-05-08T09:53:44;99515.59;;;11.83;100.00
69257;BME280;56376;53.356;-1.748;2023-05-08T09:56:10;99513.75;;;11.87;100.00
69257;BME280;56376;53.356;-1.748;2023-05-08T09:58:37;99513.75;;;11.87;100.00
69257;BME280;56376;53.356;-1.748;2023-05-08T10:01:03;99512.00;;;11.87;100.00
69257;BME280;56376;53.356;-1.748;2023-05-08T10:03:46;99514.63;;;11.86;100.00
69257;BME280;56376;53.356;-1.748;2023-05-08T10:06:12;99506.75;;;11.87;100.00
69257;BME280;56376;53.356;-1.748;2023-05-08T10:08:39;99517.09;;;11.90;100.00
69257;BME280;56376;53.356;-1.748;2023-05-08T10:11:18;99507.47;;;11.91;100.00
69257;BME280;56376;53.356;-1.748;2023-05-08T10:13:45;99499.69;;;11.89;100.00
69257;BME280;56376;53.356;-1.748;2023-05-08T10:16:15;99502.22;;;11.91;100.00
69257;BME280;56376;53.356;-1.748;2023-05-08T10:18:48;99492.75;;;11.88;100.00
69257;BME280;56376;53.356;-1.748;2023-05-08T10:21:15;99489.28;;;11.88;100.00
69257;BME280;56376;53.356;-1.748;2023-05-08T10:23:42;99488.28;;;11.90;100.00
69257;BME280;56376;53.356;-1.748;2023-05-08T10:26:13;99490.06;;;11.90;100.00
69257;BME280;56376;53.356;-1.748;2023-05-08T10:28:55;99489.94;;;11.93;100.00
69257;BME280;56376;53.356;-1.748;2023-05-08T10:31:24;99492.50;;;11.95;100.00
69257;BME280;56376;53.356;-1.748;2023-05-08T10:33:55;99480.25;;;11.95;100.00
69257;BME280;56376;53.356;-1.748;2023-05-08T10:36:22;99484.50;;;11.98;100.00
69257;BME280;56376;53.356;-1.748;2023-05-08T10:38:48;99466.09;;;11.99;100.00
69257;BME280;56376;53.356;-1.748;2023-05-08T10:41:14;99477.34;;;12.01;100.00
69257;BME280;56376;53.356;-1.748;2023-05-08T10:43:41;99488.56;;;12.05;100.00
69257;BME280;56376;53.356;-1.748;2023-05-08T10:46:36;99479.94;;;12.03;100.00
69257;BME280;56376;53.356;-1.748;2023-05-08T10:49:43;99480.56;;;12.08;100.00
69257;BME280;56376;53.356;-1.748;2023-05-08T10:52:26;99484.81;;;12.10;100.00
69257;BME280;56376;53.356;-1.748;2023-05-08T10:57:22;99482.06;;;12.13;100.00
69257;BME280;56376;53.356;-1.748;2023-05-08T10:59:48;99483.78;;;12.15;100.00
69257;BME280;56376;53.356;-1.748;2023-05-08T11:02:14;99486.31;;;12.16;100.00
69257;BME280;56376;53.356;-1.748;2023-05-08T11:04:41;99486.28;;;12.18;100.00
69257;BME280;56376;53.356;-1.748;2023-05-08T11:07:08;99482.81;;;12.17;100.00
69257;BME280;56376;53.356;-1.748;2023-05-08T11:12:21;99477.44;;;12.20;100.00
69257;BME280;56376;53.356;-1.748;2023-05-08T11:15:14;99471.34;;;12.20;100.00
69257;BME280;56376;53.356;-1.748;2023-05-08T11:17:40;99480.69;;;12.25;100.00
69257;BME280;56376;53.356;-1.748;2023-05-08T11:20:10;99484.09;;;12.27;100.00
69257;BME280;56376;53.356;-1.748;2023-05-08T11:22:36;99476.16;;;12.29;100.00
69257;BME280;56376;53.356;-1.748;2023-05-08T11:25:09;99478.78;;;12.29;100.00
69257;BME280;56376;53.356;-1.748;2023-05-08T11:35:48;99459.91;;;12.41;100.00
69257;BME280;56376;53.356;-1.748;2023-05-08T11:38:17;99473.78;;;12.43;100.00
69257;BME280;56376;53.356;-1.748;2023-05-08T11:46:13;99464.75;;;12.50;100.00
69257;BME280;56376;53.356;-1.748;2023-05-08T11:48:39;99457.03;;;12.47;100.00
69257;BME280;56376;53.356;-1.748;2023-05-08T11:51:05;99469.03;;;12.51;100.00
69257;BME280;56376;53.356;-1.748;2023-05-08T11:53:31;99474.22;;;12.53;100.00
69257;BME280;56376;53.356;-1.748;2023-05-08T11:55:57;99469.84;;;12.53;100.00
69257;BME280;56376;53.356;-1.748;2023-05-08T11:58:24;99463.66;;;12.54;100.00
69257;BME280;56376;53.356;-1.748;2023-05-08T12:00:49;99461.91;;;12.55;100.00
69257;BME280;56376;53.356;-1.748;2023-05-08T12:03:20;99463.53;;;12.58;100.00
69257;BME280;56376;53.356;-1.748;2023-05-08T12:05:46;99460.78;;;12.61;100.00
69257;BME280;56376;53.356;-1.748;2023-05-08T12:08:14;99461.69;;;12.60;100.00
69257;BME280;56376;53.356;-1.748;2023-05-08T12:10:47;99465.19;;;12.60;100.00
69257;BME280;56376;53.356;-1.748;2023-05-08T12:13:20;99460.78;;;12.61;100.00
69257;BME280;56376;53.356;-1.748;2023-05-08T12:15:47;99467.66;;;12.63;100.00
69257;BME280;56376;53.356;-1.748;2023-05-08T12:18:14;99475.41;;;12.65;100.00
69257;BME280;56376;53.356;-1.748;2023-05-08T12:20:40;99460.63;;;12.64;100.00
69257;BME280;56376;53.356;-1.748;2023-05-08T12:23:08;99473.59;;;12.67;100.00
69257;BME280;56376;53.356;-1.748;2023-05-08T12:25:38;99468.44;;;12.65;100.00
69257;BME280;56376;53.356;-1.748;2023-05-08T12:28:08;99470.91;;;12.68;100.00
69257;BME280;56376;53.356;-1.748;2023-05-08T12:30:35;99463.09;;;12.67;100.00
69257;BME280;56376;53.356;-1.748;2023-05-08T12:33:01;99463.09;;;12.67;100.00
69257;BME280;56376;53.356;-1.748;2023-05-08T12:35:28;99462.13;;;12.69;100.00
69257;BME280;56376;53.356;-1.748;2023-05-08T12:37:59;99459.44;;;12.71;100.00
69257;BME280;56376;53.356;-1.748;2023-05-08T12:40:45;99456.66;;;12.74;100.00
69257;BME280;56376;53.356;-1.748;2023-05-08T12:43:13;99449.59;;;12.76;100.00
69257;BME280;56376;53.356;-1.748;2023-05-08T12:45:40;99448.66;;;12.77;100.00
69257;BME280;56376;53.356;-1.748;2023-05-08T12:48:11;99433.72;;;12.79;100.00
69257;BME280;56376;53.356;-1.748;2023-05-08T12:50:39;99438.75;;;12.84;100.00
69257;BME280;56376;53.356;-1.748;2023-05-08T12:53:06;99437.91;;;12.83;100.00
69257;BME280;56376;53.356;-1.748;2023-05-08T12:55:33;99436.81;;;12.87;100.00
69257;BME280;56376;53.356;-1.748;2023-05-08T12:58:08;99431.72;;;12.84;100.00
69257;BME280;56376;53.356;-1.748;2023-05-08T13:00:36;99439.38;;;12.89;100.00
69257;BME280;56376;53.356;-1.748;2023-05-08T13:03:02;99456.78;;;12.90;100.00
69257;BME280;56376;53.356;-1.748;2023-05-08T13:05:27;99463.75;;;12.91;100.00
69257;BME280;56376;53.356;-1.748;2023-05-08T13:07:58;99471.53;;;12.92;100.00
69257;BME280;56376;53.356;-1.748;2023-05-08T13:10:23;99456.66;;;12.93;100.00
69257;BME280;56376;53.356;-1.748;2023-05-08T13:12:49;99451.34;;;12.94;100.00
69257;BME280;56376;53.356;-1.748;2023-05-08T13:15:14;99451.28;;;12.96;100.00
69257;BME280;56376;53.356;-1.748;2023-05-08T13:17:40;99457.31;;;12.98;100.00
69257;BME280;56376;53.356;-1.748;2023-05-08T13:20:05;99459.03;;;12.97;100.00
69257;BME280;56376;53.356;-1.748;2023-05-08T13:22:31;99451.19;;;12.97;100.00
69257;BME280;56376;53.356;-1.748;2023-05-08T13:24:57;99455.53;;;12.98;100.00
69257;BME280;56376;53.356;-1.748;2023-05-08T13:27:22;99442.25;;;13.02;100.00
69257;BME280;56376;53.356;-1.748;2023-05-08T13:29:47;99437.03;;;13.02;100.00
69257;BME280;56376;53.356;-1.748;2023-05-08T13:32:13;99423.91;;;13.02;100.00